TAF Text Data
IDs:
Format:
Raw Decoded Include METAR

Data at: 2237 UTC 14 Dec 2018

TAF for:KAUS (Austin/Bergstrom Int, TX, US) issued at 2000 UTC 14 Dec 2018
Text:KAUS 142000Z 1420/1524 31016G26KT P6SM OVC025
Forecast period:2000 to 2200 UTC 14 December 2018
Forecast type:FROM: standard forecast or significant change
Winds:from the NW (310 degrees) at 18 MPH (16 knots; 8.2 m/s) gusting to 30 MPH (26 knots; 13.4 m/s)
Visibility:6 or more sm (10+ km)
Ceiling:2500 feet AGL
Clouds: overcast cloud deck at 2500 feet AGL
Text:FM142200 32015G25KT P6SM BKN035
Forecast period:2200 UTC 14 December 2018 to 0200 UTC 15 December 2018
Forecast type:FROM: standard forecast or significant change
Winds:from the NW (320 degrees) at 17 MPH (15 knots; 7.7 m/s) gusting to 29 MPH (25 knots; 12.9 m/s)
Visibility:6 or more sm (10+ km)
Ceiling:3500 feet AGL
Clouds: broken clouds at 3500 feet AGL
Text:FM150200 32011KT P6SM SKC
Forecast period:0200 UTC 15 December 2018 to 0000 UTC 16 December 2018
Forecast type:FROM: standard forecast or significant change
Winds:from the NW (320 degrees) at 13 MPH (11 knots; 5.7 m/s)
Visibility:6 or more sm (10+ km)
Ceiling:at least 12,000 feet AGL
Clouds:clear skies